sensor_id;sensor_type;location;lat;lon;timestamp;temperature;humidity
39847;DHT22;25517;52.422;10.782;2022-10-23T00:03:51;12.70;99.90
39847;DHT22;25517;52.422;10.782;2022-10-23T00:06:18;12.70;99.90
39847;DHT22;25517;52.422;10.782;2022-10-23T00:08:46;12.70;99.90
39847;DHT22;25517;52.422;10.782;2022-10-23T00:11:15;12.60;99.90
39847;DHT22;25517;52.422;10.782;2022-10-23T00:13:42;12.70;99.90
39847;DHT22;25517;52.422;10.782;2022-10-23T00:16:11;12.70;99.90
39847;DHT22;25517;52.422;10.782;2022-10-23T00:18:38;12.70;99.90
39847;DHT22;25517;52.422;10.782;2022-10-23T00:21:06;12.70;99.90
39847;DHT22;25517;52.422;10.782;2022-10-23T00:23:32;12.70;99.90
39847;DHT22;25517;52.422;10.782;2022-10-23T00:25:57;12.70;99.90
39847;DHT22;25517;52.422;10.782;2022-10-23T00:28:24;12.70;99.90
39847;DHT22;25517;52.422;10.782;2022-10-23T00:30:50;12.70;99.90
39847;DHT22;25517;52.422;10.782;2022-10-23T00:33:16;12.60;99.90
39847;DHT22;25517;52.422;10.782;2022-10-23T00:35:42;12.60;99.90
39847;DHT22;25517;52.422;10.782;2022-10-23T00:38:09;12.60;99.90
39847;DHT22;25517;52.422;10.782;2022-10-23T00:40:36;12.50;99.90
39847;DHT22;25517;52.422;10.782;2022-10-23T00:43:02;12.60;99.90
39847;DHT22;25517;52.422;10.782;2022-10-23T00:45:30;12.50;99.90
39847;DHT22;25517;52.422;10.782;2022-10-23T00:47:58;12.60;99.90
39847;DHT22;25517;52.422;10.782;2022-10-23T00:50:28;12.50;99.90
39847;DHT22;25517;52.422;10.782;2022-10-23T00:52:55;12.50;99.90
39847;DHT22;25517;52.422;10.782;2022-10-23T00:55:22;12.50;99.90
39847;DHT22;25517;52.422;10.782;2022-10-23T00:57:49;12.50;99.90
39847;DHT22;25517;52.422;10.782;2022-10-23T01:00:25;12.50;99.90
39847;DHT22;25517;52.422;10.782;2022-10-23T01:02:54;12.50;99.90
39847;DHT22;25517;52.422;10.782;2022-10-23T01:05:24;12.50;99.90
39847;DHT22;25517;52.422;10.782;2022-10-23T01:07:52;12.50;99.90
39847;DHT22;25517;52.422;10.782;2022-10-23T01:10:24;12.60;99.90
39847;DHT22;25517;52.422;10.782;2022-10-23T01:12:55;12.60;99.90
39847;DHT22;25517;52.422;10.782;2022-10-23T01:18:21;12.70;99.90
39847;DHT22;25517;52.422;10.782;2022-10-23T01:20:49;12.70;99.90
39847;DHT22;25517;52.422;10.782;2022-10-23T01:31:29;12.70;99.90
39847;DHT22;25517;52.422;10.782;2022-10-23T01:34:07;12.70;99.90
39847;DHT22;25517;52.422;10.782;2022-10-23T01:36:35;12.60;99.90
39847;DHT22;25517;52.422;10.782;2022-10-23T01:39:14;12.60;99.90
39847;DHT22;25517;52.422;10.782;2022-10-23T01:41:46;12.60;99.90
39847;DHT22;25517;52.422;10.782;2022-10-23T01:46:49;12.70;99.90
39847;DHT22;25517;52.422;10.782;2022-10-23T01:49:17;12.70;99.90
39847;DHT22;25517;52.422;10.782;2022-10-23T01:51:48;12.60;99.90
39847;DHT22;25517;52.422;10.782;2022-10-23T01:54:21;12.60;99.90
39847;DHT22;25517;52.422;10.782;2022-10-23T01:56:49;12.60;99.90
39847;DHT22;25517;52.422;10.782;2022-10-23T01:59:25;12.60;99.90
39847;DHT22;25517;52.422;10.782;2022-10-23T02:01:53;12.60;99.90
39847;DHT22;25517;52.422;10.782;2022-10-23T02:04:37;12.70;99.90
39847;DHT22;25517;52.422;10.782;2022-10-23T02:07:04;12.70;99.90
39847;DHT22;25517;52.422;10.782;2022-10-23T02:09:34;12.70;99.90
39847;DHT22;25517;52.422;10.782;2022-10-23T02:12:12;12.60;99.90
39847;DHT22;25517;52.422;10.782;2022-10-23T02:15:15;12.60;99.90
39847;DHT22;25517;52.422;10.782;2022-10-23T02:21:22;12.60;99.90
39847;DHT22;25517;52.422;10.782;2022-10-23T02:23:54;12.50;99.90
39847;DHT22;25517;52.422;10.782;2022-10-23T02:26:52;12.40;99.90
39847;DHT22;25517;52.422;10.782;2022-10-23T02:29:33;12.30;99.90
39847;DHT22;25517;52.422;10.782;2022-10-23T02:32:02;12.30;99.90
39847;DHT22;25517;52.422;10.782;2022-10-23T02:34:29;12.30;99.90
39847;DHT22;25517;52.422;10.782;2022-10-23T02:36:55;12.20;99.90
39847;DHT22;25517;52.422;10.782;2022-10-23T02:39:21;12.10;99.90
39847;DHT22;25517;52.422;10.782;2022-10-23T02:42:08;12.10;99.90
39847;DHT22;25517;52.422;10.782;2022-10-23T02:47:20;12.00;99.90
39847;DHT22;25517;52.422;10.782;2022-10-23T02:53:21;12.00;99.90
39847;DHT22;25517;52.422;10.782;2022-10-23T02:58:50;11.80;99.90
39847;DHT22;25517;52.422;10.782;2022-10-23T03:01:28;11.80;99.90
39847;DHT22;25517;52.422;10.782;2022-10-23T03:04:00;11.80;99.90
39847;DHT22;25517;52.422;10.782;2022-10-23T03:06:27;11.70;99.90
39847;DHT22;25517;52.422;10.782;2022-10-23T03:08:58;11.80;99.90
39847;DHT22;25517;52.422;10.782;2022-10-23T03:11:24;11.70;99.90
39847;DHT22;25517;52.422;10.782;2022-10-23T03:13:56;11.70;99.90
39847;DHT22;25517;52.422;10.782;2022-10-23T03:16:23;11.70;99.90
39847;DHT22;25517;52.422;10.782;2022-10-23T03:18:51;11.70;99.90
39847;DHT22;25517;52.422;10.782;2022-10-23T03:21:20;11.70;99.90
39847;DHT22;25517;52.422;10.782;2022-10-23T03:23:45;11.60;99.90
39847;DHT22;25517;52.422;10.782;2022-10-23T03:26:11;11.60;99.90
39847;DHT22;25517;52.422;10.782;2022-10-23T03:28:36;11.70;99.90
39847;DHT22;25517;52.422;10.782;2022-10-23T03:31:02;11.60;99.90
39847;DHT22;25517;52.422;10.782;2022-10-23T03:33:29;11.60;99.90
39847;DHT22;25517;52.422;10.782;2022-10-23T03:35:55;11.60;99.90
39847;DHT22;25517;52.422;10.782;2022-10-23T03:38:26;11.60;99.90
39847;DHT22;25517;52.422;10.782;2022-10-23T03:40:52;11.50;99.90
39847;DHT22;25517;52.422;10.782;2022-10-23T03:43:20;11.50;99.90
39847;DHT22;25517;52.422;10.782;2022-10-23T03:45:46;11.50;99.90
39847;DHT22;25517;52.422;10.782;2022-10-23T03:48:12;11.50;99.90
39847;DHT22;25517;52.422;10.782;2022-10-23T03:50:38;11.50;99.90
39847;DHT22;25517;52.422;10.782;2022-10-23T03:53:03;11.50;99.90
39847;DHT22;25517;52.422;10.782;2022-10-23T03:55:29;11.50;99.90
39847;DHT22;25517;52.422;10.782;2022-10-23T03:57:55;11.50;99.90
39847;DHT22;25517;52.422;10.782;2022-10-23T04:00:23;11.50;99.90
39847;DHT22;25517;52.422;10.782;2022-10-23T04:02:52;11.40;99.90
39847;DHT22;25517;52.422;10.782;2022-10-23T04:05:17;11.50;99.90
39847;DHT22;25517;52.422;10.782;2022-10-23T04:07:46;11.40;99.90
39847;DHT22;25517;52.422;10.782;2022-10-23T04:10:14;11.40;99.90
39847;DHT22;25517;52.422;10.782;2022-10-23T04:12:40;11.40;99.90
39847;DHT22;25517;52.422;10.782;2022-10-23T04:15:09;11.30;99.90
39847;DHT22;25517;52.422;10.782;2022-10-23T04:17:34;11.30;99.90
39847;DHT22;25517;52.422;10.782;2022-10-23T04:20:03;11.20;99.90
39847;DHT22;25517;52.422;10.782;2022-10-23T04:22:32;11.20;99.90
39847;DHT22;25517;52.422;10.782;2022-10-23T04:25:00;11.20;99.90
39847;DHT22;25517;52.422;10.782;2022-10-23T04:27:26;11.20;99.90
39847;DHT22;25517;52.422;10.782;2022-10-23T04:29:54;11.10;99.90
39847;DHT22;25517;52.422;10.782;2022-10-23T04:32:23;11.20;99.90
39847;DHT22;25517;52.422;10.782;2022-10-23T04:34:51;11.20;99.90
39847;DHT22;25517;52.422;10.782;2022-10-23T04:37:16;11.10;99.90
39847;DHT22;25517;52.422;10.782;2022-10-23T04:39:45;11.10;99.90
39847;DHT22;25517;52.422;10.782;2022-10-23T04:42:13;11.10;99.90
39847;DHT22;25517;52.422;10.782;2022-10-23T04:44:39;11.10;99.90
39847;DHT22;25517;52.422;10.782;2022-10-23T04:47:05;11.10;99.90
39847;DHT22;25517;52.422;10.782;2022-10-23T04:49:31;11.10;99.90
39847;DHT22;25517;52.422;10.782;2022-10-23T04:51:57;11.10;99.90
39847;DHT22;25517;52.422;10.782;2022-10-23T04:54:22;11.10;99.90
39847;DHT22;25517;52.422;10.782;2022-10-23T04:56:48;11.10;99.90
39847;DHT22;25517;52.422;10.782;2022-10-23T04:59:14;11.00;99.90
39847;DHT22;25517;52.422;10.782;2022-10-23T05:01:39;11.00;99.90
39847;DHT22;25517;52.422;10.782;2022-10-23T05:04:07;11.00;99.90
39847;DHT22;25517;52.422;10.782;2022-10-23T05:06:36;10.90;99.90
39847;DHT22;25517;52.422;10.782;2022-10-23T05:09:01;10.80;99.90
39847;DHT22;25517;52.422;10.782;2022-10-23T05:11:27;10.80;99.90
39847;DHT22;25517;52.422;10.782;2022-10-23T05:13:56;10.80;99.90
39847;DHT22;25517;52.422;10.782;2022-10-23T05:16:49;10.70;99.90
39847;DHT22;25517;52.422;10.782;2022-10-23T05:19:36;10.70;99.90
39847;DHT22;25517;52.422;10.782;2022-10-23T05:22:04;10.70;99.90
39847;DHT22;25517;52.422;10.782;2022-10-23T05:24:30;10.70;99.90
39847;DHT22;25517;52.422;10.782;2022-10-23T05:26:56;10.80;99.90
39847;DHT22;25517;52.422;10.782;2022-10-23T05:29:22;10.80;99.90
39847;DHT22;25517;52.422;10.782;2022-10-23T05:31:49;10.80;99.90
39847;DHT22;25517;52.422;10.782;2022-10-23T05:34:19;10.90;99.90
39847;DHT22;25517;52.422;10.782;2022-10-23T05:36:46;10.90;99.90
39847;DHT22;25517;52.422;10.782;2022-10-23T05:39:13;10.80;99.90
39847;DHT22;25517;52.422;10.782;2022-10-23T05:41:39;10.90;99.90
39847;DHT22;25517;52.422;10.782;2022-10-23T05:44:05;10.90;99.90
39847;DHT22;25517;52.422;10.782;2022-10-23T05:46:30;10.90;99.90
39847;DHT22;25517;52.422;10.782;2022-10-23T05:48:56;10.90;99.90
39847;DHT22;25517;52.422;10.782;2022-10-23T05:51:21;10.90;99.90
39847;DHT22;25517;52.422;10.782;2022-10-23T05:53:50;10.90;99.90
39847;DHT22;25517;52.422;10.782;2022-10-23T05:56:16;10.90;99.90
39847;DHT22;25517;52.422;10.782;2022-10-23T05:58:42;10.80;99.90
39847;DHT22;25517;52.422;10.782;2022-10-23T06:01:10;10.80;99.90
39847;DHT22;25517;52.422;10.782;2022-10-23T06:03:37;10.80;99.90
39847;DHT22;25517;52.422;10.782;2022-10-23T06:06:04;10.80;99.90
39847;DHT22;25517;52.422;10.782;2022-10-23T06:08:37;10.80;99.90
39847;DHT22;25517;52.422;10.782;2022-10-23T06:11:07;10.80;99.90
39847;DHT22;25517;52.422;10.782;2022-10-23T06:13:33;10.80;99.90
39847;DHT22;25517;52.422;10.782;2022-10-23T06:16:10;10.90;99.90
39847;DHT22;25517;52.422;10.782;2022-10-23T06:18:36;10.80;99.90
39847;DHT22;25517;52.422;10.782;2022-10-23T06:21:07;10.90;99.90
39847;DHT22;25517;52.422;10.782;2022-10-23T06:23:34;10.90;99.90
39847;DHT22;25517;52.422;10.782;2022-10-23T06:26:01;10.90;99.90
39847;DHT22;25517;52.422;10.782;2022-10-23T06:28:27;11.00;99.90
39847;DHT22;25517;52.422;10.782;2022-10-23T06:30:53;11.00;99.90
39847;DHT22;25517;52.422;10.782;2022-10-23T06:33:19;11.10;99.90
39847;DHT22;25517;52.422;10.782;2022-10-23T06:35:45;11.10;99.90
39847;DHT22;25517;52.422;10.782;2022-10-23T06:38:11;11.20;99.90
39847;DHT22;25517;52.422;10.782;2022-10-23T06:40:37;11.20;99.90
39847;DHT22;25517;52.422;10.782;2022-10-23T06:43:04;11.30;99.90
39847;DHT22;25517;52.422;10.782;2022-10-23T06:45:31;11.40;99.90
39847;DHT22;25517;52.422;10.782;2022-10-23T06:47:58;11.40;99.90
39847;DHT22;25517;52.422;10.782;2022-10-23T06:50:25;11.50;99.90
39847;DHT22;25517;52.422;10.782;2022-10-23T06:52:51;11.50;99.90
39847;DHT22;25517;52.422;10.782;2022-10-23T06:55:18;11.60;99.90
39847;DHT22;25517;52.422;10.782;2022-10-23T06:57:44;11.70;99.90
39847;DHT22;25517;52.422;10.782;2022-10-23T07:00:11;11.70;99.90
39847;DHT22;25517;52.422;10.782;2022-10-23T07:02:36;11.80;99.90
39847;DHT22;25517;52.422;10.782;2022-10-23T07:05:02;11.90;99.90
39847;DHT22;25517;52.422;10.782;2022-10-23T07:07:31;11.90;99.90
39847;DHT22;25517;52.422;10.782;2022-10-23T07:09:57;12.00;99.90
39847;DHT22;25517;52.422;10.782;2022-10-23T07:12:25;12.00;99.90
39847;DHT22;25517;52.422;10.782;2022-10-23T07:14:55;12.10;99.90
39847;DHT22;25517;52.422;10.782;2022-10-23T07:17:20;12.20;99.90
39847;DHT22;25517;52.422;10.782;2022-10-23T07:19:46;12.20;99.90
39847;DHT22;25517;52.422;10.782;2022-10-23T07:22:12;12.30;99.90
39847;DHT22;25517;52.422;10.782;2022-10-23T07:24:38;12.40;99.90
39847;DHT22;25517;52.422;10.782;2022-10-23T07:27:05;12.50;99.90
39847;DHT22;25517;52.422;10.782;2022-10-23T07:29:31;12.60;99.90
39847;DHT22;25517;52.422;10.782;2022-10-23T07:31:58;12.60;99.90
39847;DHT22;25517;52.422;10.782;2022-10-23T07:34:25;12.70;99.90
39847;DHT22;25517;52.422;10.782;2022-10-23T07:36:51;12.80;99.90
39847;DHT22;25517;52.422;10.782;2022-10-23T07:39:19;12.90;99.90
39847;DHT22;25517;52.422;10.782;2022-10-23T07:41:45;13.00;99.90
39847;DHT22;25517;52.422;10.782;2022-10-23T07:44:10;13.10;99.90
39847;DHT22;25517;52.422;10.782;2022-10-23T07:46:39;13.20;99.90
39847;DHT22;25517;52.422;10.782;2022-10-23T07:49:04;13.30;99.90
39847;DHT22;25517;52.422;10.782;2022-10-23T07:51:30;13.40;99.90
39847;DHT22;25517;52.422;10.782;2022-10-23T07:53:56;13.50;99.90
39847;DHT22;25517;52.422;10.782;2022-10-23T07:56:23;13.60;99.90
39847;DHT22;25517;52.422;10.782;2022-10-23T07:58:51;13.70;99.90
39847;DHT22;25517;52.422;10.782;2022-10-23T08:01:30;13.80;99.90
39847;DHT22;25517;52.422;10.782;2022-10-23T08:03:56;14.00;99.90
39847;DHT22;25517;52.422;10.782;2022-10-23T08:06:22;14.10;99.90
39847;DHT22;25517;52.422;10.782;2022-10-23T08:08:48;14.20;99.90
39847;DHT22;25517;52.422;10.782;2022-10-23T08:11:14;14.40;99.90
39847;DHT22;25517;52.422;10.782;2022-10-23T08:13:41;14.50;99.90
39847;DHT22;25517;52.422;10.782;2022-10-23T08:16:11;14.60;99.90
39847;DHT22;25517;52.422;10.782;2022-10-23T08:18:36;14.60;99.90
39847;DHT22;25517;52.422;10.782;2022-10-23T08:21:04;14.70;99.90
39847;DHT22;25517;52.422;10.782;2022-10-23T08:23:30;14.80;99.90
39847;DHT22;25517;52.422;10.782;2022-10-23T08:26:00;14.90;99.90
39847;DHT22;25517;52.422;10.782;2022-10-23T08:28:29;14.90;99.90
39847;DHT22;25517;52.422;10.782;2022-10-23T08:30:55;15.00;99.90
39847;DHT22;25517;52.422;10.782;2022-10-23T08:33:21;15.00;99.90
39847;DHT22;25517;52.422;10.782;2022-10-23T08:35:49;15.10;99.90
39847;DHT22;25517;52.422;10.782;2022-10-23T08:38:16;15.20;99.90
39847;DHT22;25517;52.422;10.782;2022-10-23T08:40:46;15.20;99.90
39847;DHT22;25517;52.422;10.782;2022-10-23T08:43:32;15.40;99.90
39847;DHT22;25517;52.422;10.782;2022-10-23T08:46:18;15.40;99.90
39847;DHT22;25517;52.422;10.782;2022-10-23T08:49:16;15.50;99.90
39847;DHT22;25517;52.422;10.782;2022-10-23T08:51:41;15.60;99.90
39847;DHT22;25517;52.422;10.782;2022-10-23T08:54:24;15.80;99.90
39847;DHT22;25517;52.422;10.782;2022-10-23T08:57:20;15.90;99.90
39847;DHT22;25517;52.422;10.782;2022-10-23T08:59:51;16.10;99.90
39847;DHT22;25517;52.422;10.782;2022-10-23T09:02:41;16.20;99.90
39847;DHT22;25517;52.422;10.782;2022-10-23T09:05:30;16.30;99.90
39847;DHT22;25517;52.422;10.782;2022-10-23T09:13:59;17.00;99.90
39847;DHT22;25517;52.422;10.782;2022-10-23T09:19:07;17.30;99.90
39847;DHT22;25517;52.422;10.782;2022-10-23T09:21:44;17.20;99.90
39847;DHT22;25517;52.422;10.782;2022-10-23T09:24:12;17.30;99.90
39847;DHT22;25517;52.422;10.782;2022-10-23T09:26:38;17.30;99.90
39847;DHT22;25517;52.422;10.782;2022-10-23T09:29:21;17.20;99.90
39847;DHT22;25517;52.422;10.782;2022-10-23T09:31:50;17.10;99.90
39847;DHT22;25517;52.422;10.782;2022-10-23T09:34:23;17.00;99.90
39847;DHT22;25517;52.422;10.782;2022-10-23T09:36:57;17.00;99.90
39847;DHT22;25517;52.422;10.782;2022-10-23T09:39:34;17.00;99.90
39847;DHT22;25517;52.422;10.782;2022-10-23T09:42:18;17.00;99.90
39847;DHT22;25517;52.422;10.782;2022-10-23T09:44:51;17.00;99.90
39847;DHT22;25517;52.422;10.782;2022-10-23T09:47:22;17.10;99.90
39847;DHT22;25517;52.422;10.782;2022-10-23T09:49:55;17.30;99.90
39847;DHT22;25517;52.422;10.782;2022-10-23T09:52:38;17.50;99.90
39847;DHT22;25517;52.422;10.782;2022-10-23T09:55:21;17.70;99.90
39847;DHT22;25517;52.422;10.782;2022-10-23T09:57:49;18.10;99.90
39847;DHT22;25517;52.422;10.782;2022-10-23T10:00:29;18.60;99.90
39847;DHT22;25517;52.422;10.782;2022-10-23T10:03:05;19.20;99.90
39847;DHT22;25517;52.422;10.782;2022-10-23T10:05:43;19.60;99.90
39847;DHT22;25517;52.422;10.782;2022-10-23T10:36:54;21.80;99.90
39847;DHT22;25517;52.422;10.782;2022-10-23T10:39:26;21.70;99.90
39847;DHT22;25517;52.422;10.782;2022-10-23T10:42:15;21.40;99.90
39847;DHT22;25517;52.422;10.782;2022-10-23T10:50:52;21.00;99.90
39847;DHT22;25517;52.422;10.782;2022-10-23T10:56:43;20.70;99.90
39847;DHT22;25517;52.422;10.782;2022-10-23T10:59:23;20.30;99.90
39847;DHT22;25517;52.422;10.782;2022-10-23T11:02:32;20.20;99.90
39847;DHT22;25517;52.422;10.782;2022-10-23T11:08:15;20.20;99.90
39847;DHT22;25517;52.422;10.782;2022-10-23T11:11:16;19.60;99.90
39847;DHT22;25517;52.422;10.782;2022-10-23T11:13:42;19.30;99.90
39847;DHT22;25517;52.422;10.782;2022-10-23T11:19:19;19.10;99.90
39847;DHT22;25517;52.422;10.782;2022-10-23T11:21:56;19.10;99.90
39847;DHT22;25517;52.422;10.782;2022-10-23T11:36:16;20.40;99.90
39847;DHT22;25517;52.422;10.782;2022-10-23T11:38:45;20.50;99.90
39847;DHT22;25517;52.422;10.782;2022-10-23T11:41:24;20.70;99.90
39847;DHT22;25517;52.422;10.782;2022-10-23T11:43:53;21.00;99.90
39847;DHT22;25517;52.422;10.782;2022-10-23T11:48:49;21.40;99.90
39847;DHT22;25517;52.422;10.782;2022-10-23T11:51:38;21.40;99.90
39847;DHT22;25517;52.422;10.782;2022-10-23T11:54:27;21.10;99.90
39847;DHT22;25517;52.422;10.782;2022-10-23T11:57:13;21.30;99.90
39847;DHT22;25517;52.422;10.782;2022-10-23T11:59:52;21.50;99.90
39847;DHT22;25517;52.422;10.782;2022-10-23T12:07:53;21.40;99.90
39847;DHT22;25517;52.422;10.782;2022-10-23T12:10:26;21.80;99.90
39847;DHT22;25517;52.422;10.782;2022-10-23T12:13:03;22.00;99.90
39847;DHT22;25517;52.422;10.782;2022-10-23T12:15:39;22.20;99.90
39847;DHT22;25517;52.422;10.782;2022-10-23T12:18:27;22.40;99.90
39847;DHT22;25517;52.422;10.782;2022-10-23T12:21:00;22.30;99.90
39847;DHT22;25517;52.422;10.782;2022-10-23T12:23:58;22.10;99.90
39847;DHT22;25517;52.422;10.782;2022-10-23T12:26:57;22.20;99.90
39847;DHT22;25517;52.422;10.782;2022-10-23T12:32:55;22.30;99.90
39847;DHT22;25517;52.422;10.782;2022-10-23T12:38:27;22.10;99.90
39847;DHT22;25517;52.422;10.782;2022-10-23T12:40:59;21.60;99.90
39847;DHT22;25517;52.422;10.782;2022-10-23T12:43:36;21.40;99.90
39847;DHT22;25517;52.422;10.782;2022-10-23T12:48:56;21.30;99.90
39847;DHT22;25517;52.422;10.782;2022-10-23T12:51:33;21.20;99.90
39847;DHT22;25517;52.422;10.782;2022-10-23T12:54:00;21.10;99.90
39847;DHT22;25517;52.422;10.782;2022-10-23T12:56:35;20.90;99.90
39847;DHT22;25517;52.422;10.782;2022-10-23T12:59:09;20.80;99.90
39847;DHT22;25517;52.422;10.782;2022-10-23T13:01:35;20.80;99.90
39847;DHT22;25517;52.422;10.782;2022-10-23T13:04:19;20.90;99.90
39847;DHT22;25517;52.422;10.782;2022-10-23T13:06:46;21.00;99.90
39847;DHT22;25517;52.422;10.782;2022-10-23T13:09:26;21.00;99.90
39847;DHT22;25517;52.422;10.782;2022-10-23T13:11:53;21.20;99.90
39847;DHT22;25517;52.422;10.782;2022-10-23T13:14:35;21.30;99.90
39847;DHT22;25517;52.422;10.782;2022-10-23T13:17:03;21.30;99.90
39847;DHT22;25517;52.422;10.782;2022-10-23T13:19:33;21.40;99.90
39847;DHT22;25517;52.422;10.782;2022-10-23T13:22:00;21.50;99.90
39847;DHT22;25517;52.422;10.782;2022-10-23T13:24:28;21.50;99.90
39847;DHT22;25517;52.422;10.782;2022-10-23T13:26:56;21.40;99.90
39847;DHT22;25517;52.422;10.782;2022-10-23T13:29:30;21.10;99.90
39847;DHT22;25517;52.422;10.782;2022-10-23T13:31:56;20.90;99.90
39847;DHT22;25517;52.422;10.782;2022-10-23T13:34:24;20.70;99.90
39847;DHT22;25517;52.422;10.782;2022-10-23T13:37:01;20.50;99.90
39847;DHT22;25517;52.422;10.782;2022-10-23T13:39:31;20.40;99.90
39847;DHT22;25517;52.422;10.782;2022-10-23T13:42:16;20.30;99.90
39847;DHT22;25517;52.422;10.782;2022-10-23T13:44:45;20.20;99.90
39847;DHT22;25517;52.422;10.782;2022-10-23T13:47:12;20.00;99.90
39847;DHT22;25517;52.422;10.782;2022-10-23T13:49:38;19.90;99.90
39847;DHT22;25517;52.422;10.782;2022-10-23T13:52:04;19.80;99.90
39847;DHT22;25517;52.422;10.782;2022-10-23T13:54:29;19.70;99.90
39847;DHT22;25517;52.422;10.782;2022-10-23T13:56:56;19.60;99.90
39847;DHT22;25517;52.422;10.782;2022-10-23T13:59:24;19.50;99.90
39847;DHT22;25517;52.422;10.782;2022-10-23T14:01:52;19.40;99.90
39847;DHT22;25517;52.422;10.782;2022-10-23T14:04:21;19.40;99.90
39847;DHT22;25517;52.422;10.782;2022-10-23T14:06:48;19.30;99.90
39847;DHT22;25517;52.422;10.782;2022-10-23T14:09:17;19.30;99.90
39847;DHT22;25517;52.422;10.782;2022-10-23T14:11:43;19.30;99.90
39847;DHT22;25517;52.422;10.782;2022-10-23T14:14:09;19.40;99.90
39847;DHT22;25517;52.422;10.782;2022-10-23T14:16:35;19.40;99.90
39847;DHT22;25517;52.422;10.782;2022-10-23T14:19:01;19.30;99.90
39847;DHT22;25517;52.422;10.782;2022-10-23T14:21:27;19.30;99.90
39847;DHT22;25517;52.422;10.782;2022-10-23T14:23:53;19.20;99.90
39847;DHT22;25517;52.422;10.782;2022-10-23T14:26:24;19.10;99.90
39847;DHT22;25517;52.422;10.782;2022-10-23T14:28:53;19.00;99.90
39847;DHT22;25517;52.422;10.782;2022-10-23T14:31:20;19.00;99.90
39847;DHT22;25517;52.422;10.782;2022-10-23T14:33:50;18.90;99.90
39847;DHT22;25517;52.422;10.782;2022-10-23T14:36:16;18.80;99.90
39847;DHT22;25517;52.422;10.782;2022-10-23T14:38:42;18.70;99.90
39847;DHT22;25517;52.422;10.782;2022-10-23T14:41:12;18.70;99.90
39847;DHT22;25517;52.422;10.782;2022-10-23T14:43:42;18.60;99.90
39847;DHT22;25517;52.422;10.782;2022-10-23T14:46:12;18.60;99.90
39847;DHT22;25517;52.422;10.782;2022-10-23T14:48:39;18.60;99.90
39847;DHT22;25517;52.422;10.782;2022-10-23T14:51:13;18.50;99.90
39847;DHT22;25517;52.422;10.782;2022-10-23T14:53:39;18.40;99.90
39847;DHT22;25517;52.422;10.782;2022-10-23T14:56:05;18.40;99.90
39847;DHT22;25517;52.422;10.782;2022-10-23T14:58:30;18.30;99.90
39847;DHT22;25517;52.422;10.782;2022-10-23T15:00:59;18.30;99.90
39847;DHT22;25517;52.422;10.782;2022-10-23T15:03:27;18.20;99.90
39847;DHT22;25517;52.422;10.782;2022-10-23T15:05:55;18.20;99.90
39847;DHT22;25517;52.422;10.782;2022-10-23T15:08:22;18.10;99.90
39847;DHT22;25517;52.422;10.782;2022-10-23T15:10:51;18.00;99.90
39847;DHT22;25517;52.422;10.782;2022-10-23T15:13:16;17.90;99.90
39847;DHT22;25517;52.422;10.782;2022-10-23T15:15:44;17.90;99.90
39847;DHT22;25517;52.422;10.782;2022-10-23T15:18:10;17.80;99.90
39847;DHT22;25517;52.422;10.782;2022-10-23T15:20:39;17.80;99.90
39847;DHT22;25517;52.422;10.782;2022-10-23T15:23:04;17.70;99.90
39847;DHT22;25517;52.422;10.782;2022-10-23T15:25:30;17.70;99.90
39847;DHT22;25517;52.422;10.782;2022-10-23T15:27:55;17.70;99.90
39847;DHT22;25517;52.422;10.782;2022-10-23T15:30:21;17.70;99.90
39847;DHT22;25517;52.422;10.782;2022-10-23T15:32:46;17.70;99.90
39847;DHT22;25517;52.422;10.782;2022-10-23T15:35:12;17.70;99.90
39847;DHT22;25517;52.422;10.782;2022-10-23T15:37:38;17.60;99.90
39847;DHT22;25517;52.422;10.782;2022-10-23T15:40:03;17.50;99.90
39847;DHT22;25517;52.422;10.782;2022-10-23T15:42:29;17.40;99.90
39847;DHT22;25517;52.422;10.782;2022-10-23T15:44:55;17.40;99.90
39847;DHT22;25517;52.422;10.782;2022-10-23T15:47:21;17.30;99.90
39847;DHT22;25517;52.422;10.782;2022-10-23T15:49:47;17.30;99.90
39847;DHT22;25517;52.422;10.782;2022-10-23T15:52:12;17.30;99.90
39847;DHT22;25517;52.422;10.782;2022-10-23T15:54:38;17.20;99.90
39847;DHT22;25517;52.422;10.782;2022-10-23T15:57:03;17.20;99.90
39847;DHT22;25517;52.422;10.782;2022-10-23T15:59:30;17.20;99.90
39847;DHT22;25517;52.422;10.782;2022-10-23T16:01:57;17.10;99.90
39847;DHT22;25517;52.422;10.782;2022-10-23T16:04:23;17.10;99.90
39847;DHT22;25517;52.422;10.782;2022-10-23T16:06:49;17.10;99.90
39847;DHT22;25517;52.422;10.782;2022-10-23T16:09:15;17.10;99.90
39847;DHT22;25517;52.422;10.782;2022-10-23T16:11:41;17.10;99.90
39847;DHT22;25517;52.422;10.782;2022-10-23T16:14:15;17.20;99.90
39847;DHT22;25517;52.422;10.782;2022-10-23T16:16:42;17.10;99.90
39847;DHT22;25517;52.422;10.782;2022-10-23T16:19:13;17.10;99.90
39847;DHT22;25517;52.422;10.782;2022-10-23T16:21:39;17.10;99.90
39847;DHT22;25517;52.422;10.782;2022-10-23T16:24:06;17.10;99.90
39847;DHT22;25517;52.422;10.782;2022-10-23T16:26:33;17.00;99.90
39847;DHT22;25517;52.422;10.782;2022-10-23T16:29:02;17.00;99.90
39847;DHT22;25517;52.422;10.782;2022-10-23T16:31:31;17.00;99.90
39847;DHT22;25517;52.422;10.782;2022-10-23T16:34:00;17.00;99.90
39847;DHT22;25517;52.422;10.782;2022-10-23T16:36:27;16.90;99.90
39847;DHT22;25517;52.422;10.782;2022-10-23T16:38:56;16.90;99.90
39847;DHT22;25517;52.422;10.782;2022-10-23T16:41:22;16.80;99.90
39847;DHT22;25517;52.422;10.782;2022-10-23T16:43:48;16.90;99.90
39847;DHT22;25517;52.422;10.782;2022-10-23T16:46:18;16.90;99.90
39847;DHT22;25517;52.422;10.782;2022-10-23T16:48:45;16.80;99.90
39847;DHT22;25517;52.422;10.782;2022-10-23T16:51:13;16.80;99.90
39847;DHT22;25517;52.422;10.782;2022-10-23T16:53:39;16.70;99.90
39847;DHT22;25517;52.422;10.782;2022-10-23T16:56:07;16.60;99.90
39847;DHT22;25517;52.422;10.782;2022-10-23T16:58:34;16.60;99.90
39847;DHT22;25517;52.422;10.782;2022-10-23T17:01:05;16.60;99.90
39847;DHT22;25517;52.422;10.782;2022-10-23T17:03:36;16.50;99.90
39847;DHT22;25517;52.422;10.782;2022-10-23T17:06:07;16.50;99.90
39847;DHT22;25517;52.422;10.782;2022-10-23T17:08:40;16.50;99.90
39847;DHT22;25517;52.422;10.782;2022-10-23T17:11:14;16.50;99.90
39847;DHT22;25517;52.422;10.782;2022-10-23T17:13:46;16.50;99.90
39847;DHT22;25517;52.422;10.782;2022-10-23T17:16:14;16.40;99.90
39847;DHT22;25517;52.422;10.782;2022-10-23T17:18:42;16.40;99.90
39847;DHT22;25517;52.422;10.782;2022-10-23T17:21:15;16.40;99.90
39847;DHT22;25517;52.422;10.782;2022-10-23T17:23:51;16.30;99.90